createdAt,value
2022-08-17T00:01:05.684Z,21.10
2022-08-17T00:03:40.868Z,21.10
2022-08-17T00:06:12.693Z,21.10
2022-08-17T00:08:49.666Z,21.10
2022-08-17T00:11:40.233Z,21.10
2022-08-17T00:14:19.003Z,21.10
2022-08-17T00:16:56.461Z,21.20
2022-08-17T00:19:27.574Z,21.20
2022-08-17T00:22:31.088Z,21.20
2022-08-17T00:24:59.659Z,21.30
2022-08-17T00:27:31.304Z,21.30
2022-08-17T00:30:01.567Z,21.30
2022-08-17T00:33:14.542Z,21.40
2022-08-17T00:35:30.817Z,21.40
2022-08-17T00:38:00.909Z,21.40
2022-08-17T00:40:44.494Z,21.40
2022-08-17T00:43:25.688Z,21.40
2022-08-17T00:45:57.918Z,21.40
2022-08-17T00:48:30.734Z,21.40
2022-08-17T00:51:25.757Z,21.40
2022-08-17T00:54:07.606Z,21.40
2022-08-17T00:56:42.993Z,21.40
2022-08-17T00:59:14.083Z,21.40
2022-08-17T01:01:45.232Z,21.40
2022-08-17T01:04:18.225Z,21.40
2022-08-17T01:06:56.845Z,21.40
2022-08-17T01:09:27.052Z,21.50
2022-08-17T01:11:57.405Z,21.50
2022-08-17T01:14:27.632Z,21.50
2022-08-17T01:16:57.676Z,21.50
2022-08-17T01:19:31.912Z,21.50
2022-08-17T01:22:27.850Z,21.50
2022-08-17T01:25:08.050Z,21.50
2022-08-17T01:27:38.946Z,21.50
2022-08-17T01:30:56.861Z,21.60
2022-08-17T01:32:58.389Z,21.60
2022-08-17T01:35:25.420Z,21.50
2022-08-17T01:37:55.471Z,21.60
2022-08-17T01:40:46.790Z,21.60
2022-08-17T01:43:30.964Z,21.60
2022-08-17T01:46:02.665Z,21.60
2022-08-17T01:48:47.614Z,21.60
2022-08-17T01:51:16.082Z,21.60
2022-08-17T01:53:52.489Z,21.60
2022-08-17T01:56:22.996Z,21.60
2022-08-17T01:58:53.079Z,21.60
2022-08-17T02:01:26.619Z,21.50
2022-08-17T02:04:01.426Z,21.50
2022-08-17T02:06:52.661Z,21.50
2022-08-17T02:09:37.628Z,21.50
2022-08-17T02:12:38.497Z,21.50
2022-08-17T02:14:58.143Z,21.50
2022-08-17T02:17:28.232Z,21.50
2022-08-17T02:19:55.107Z,21.50
2022-08-17T02:22:26.211Z,21.50
2022-08-17T02:24:58.812Z,21.50
2022-08-17T02:27:43.993Z,21.50
2022-08-17T02:30:59.083Z,21.50
2022-08-17T02:33:06.388Z,21.50
2022-08-17T02:35:37.791Z,21.50
2022-08-17T02:38:07.189Z,21.40
2022-08-17T02:40:37.477Z,21.50
2022-08-17T02:43:10.359Z,21.50
2022-08-17T02:45:40.614Z,21.40
2022-08-17T02:48:31.280Z,21.40
2022-08-17T02:51:00.861Z,21.40
2022-08-17T02:53:35.930Z,21.40
2022-08-17T02:56:06.516Z,21.40
2022-08-17T02:58:36.624Z,21.40
2022-08-17T03:01:08.174Z,21.40
2022-08-17T03:03:36.755Z,21.40
2022-08-17T03:06:07.850Z,21.30
2022-08-17T03:08:38.241Z,21.40
2022-08-17T03:11:08.331Z,21.40
2022-08-17T03:13:38.246Z,21.40
2022-08-17T03:16:09.317Z,21.40
2022-08-17T03:18:37.425Z,21.40
2022-08-17T03:21:09.243Z,21.40
2022-08-17T03:23:42.292Z,21.40
2022-08-17T03:26:12.353Z,21.40
2022-08-17T03:28:42.585Z,21.40
2022-08-17T03:31:12.712Z,21.50
2022-08-17T03:33:42.928Z,21.50
2022-08-17T03:36:10.433Z,21.40
2022-08-17T03:38:40.383Z,21.50
2022-08-17T03:41:11.420Z,21.40
2022-08-17T03:43:41.538Z,21.30
2022-08-17T03:46:35.150Z,21.20
2022-08-17T03:49:26.386Z,21.00
2022-08-17T03:52:15.258Z,20.80
2022-08-17T03:55:02.477Z,20.70
2022-08-17T03:57:32.539Z,20.70
2022-08-17T03:59:59.897Z,20.70
2022-08-17T04:02:33.050Z,20.70
2022-08-17T04:05:00.491Z,20.70
2022-08-17T04:07:31.040Z,20.70
2022-08-17T04:09:59.518Z,20.80
2022-08-17T04:12:30.969Z,20.80
2022-08-17T04:15:00.437Z,20.70
2022-08-17T04:17:30.557Z,20.70
2022-08-17T04:19:57.852Z,20.70
2022-08-17T04:22:31.024Z,20.70
2022-08-17T04:25:18.497Z,20.70
2022-08-17T04:27:48.911Z,20.70
2022-08-17T04:30:19.108Z,20.70
2022-08-17T04:33:06.423Z,20.70
2022-08-17T04:35:49.010Z,20.80
2022-08-17T04:38:25.178Z,20.80
2022-08-17T04:41:14.644Z,20.70
2022-08-17T04:43:49.581Z,20.70
2022-08-17T04:46:20.363Z,20.70
2022-08-17T04:48:53.205Z,20.70
2022-08-17T04:51:23.307Z,20.70
2022-08-17T04:53:57.699Z,20.70
2022-08-17T04:56:27.206Z,20.70
2022-08-17T04:58:58.103Z,20.60
2022-08-17T05:01:30.005Z,20.60
2022-08-17T05:04:32.841Z,20.50
2022-08-17T05:06:51.848Z,20.50
2022-08-17T05:09:22.744Z,20.50
2022-08-17T05:11:55.315Z,20.60
2022-08-17T05:14:33.182Z,20.70
2022-08-17T05:17:07.447Z,20.70
2022-08-17T05:19:38.320Z,20.70
2022-08-17T05:22:08.386Z,20.80
2022-08-17T05:24:50.433Z,20.90
2022-08-17T05:27:21.057Z,20.90
2022-08-17T05:29:53.677Z,21.00
2022-08-17T05:32:38.701Z,21.00
2022-08-17T05:35:13.258Z,21.00
2022-08-17T05:37:40.153Z,21.00
2022-08-17T05:40:10.819Z,21.00
2022-08-17T05:42:41.160Z,20.90
2022-08-17T05:45:39.960Z,20.90
2022-08-17T05:48:10.663Z,20.90
2022-08-17T05:50:48.621Z,20.90
2022-08-17T05:53:35.256Z,20.80
2022-08-17T05:56:45.210Z,20.80
2022-08-17T05:59:24.635Z,20.80
2022-08-17T06:02:30.664Z,20.80
2022-08-17T06:05:23.496Z,20.80
2022-08-17T06:08:13.127Z,20.70
2022-08-17T06:11:08.258Z,20.70
2022-08-17T06:13:51.331Z,20.70
2022-08-17T06:16:33.411Z,20.70
2022-08-17T06:19:10.059Z,20.70
2022-08-17T06:21:42.412Z,20.70
2022-08-17T06:24:31.465Z,20.70
2022-08-17T06:27:38.921Z,20.70
2022-08-17T06:30:27.450Z,20.70
2022-08-17T06:33:02.945Z,20.60
2022-08-17T06:35:43.775Z,20.60
2022-08-17T06:38:51.938Z,20.60
2022-08-17T06:41:32.115Z,20.60
2022-08-17T06:44:49.825Z,20.60
2022-08-17T06:47:35.034Z,20.60
2022-08-17T06:50:22.461Z,20.60
2022-08-17T06:53:36.466Z,20.60
2022-08-17T06:56:13.916Z,20.60
2022-08-17T06:58:44.162Z,20.60
2022-08-17T07:01:15.485Z,20.70
2022-08-17T07:04:06.348Z,20.70
2022-08-17T07:06:52.514Z,20.70
2022-08-17T07:09:40.678Z,20.70
2022-08-17T07:12:18.895Z,20.70
2022-08-17T07:14:58.105Z,20.80
2022-08-17T07:17:46.883Z,20.80
2022-08-17T07:20:22.775Z,20.70
2022-08-17T07:23:00.687Z,20.70
2022-08-17T07:25:31.330Z,20.70
2022-08-17T07:28:02.567Z,20.70
2022-08-17T07:30:45.652Z,20.70
2022-08-17T07:33:22.793Z,20.70
2022-08-17T07:35:53.306Z,20.70
2022-08-17T07:38:28.438Z,20.70
2022-08-17T07:41:02.621Z,20.70
2022-08-17T07:43:36.871Z,20.70
2022-08-17T07:46:36.672Z,20.70
2022-08-17T07:49:08.683Z,20.70
2022-08-17T07:51:45.735Z,20.70
2022-08-17T07:54:33.176Z,20.70
2022-08-17T07:57:19.270Z,20.60
2022-08-17T08:00:16.518Z,20.60
2022-08-17T08:03:00.552Z,20.60
2022-08-17T08:05:50.545Z,20.60
2022-08-17T08:08:42.687Z,20.50
2022-08-17T08:11:28.298Z,20.50
2022-08-17T08:14:28.700Z,20.50
2022-08-17T08:17:03.764Z,20.60
2022-08-17T08:19:38.810Z,20.60
2022-08-17T08:22:16.249Z,20.60
2022-08-17T08:24:56.431Z,20.60
2022-08-17T08:27:50.419Z,20.60
2022-08-17T08:30:21.719Z,20.60
2022-08-17T08:33:29.566Z,20.60
2022-08-17T08:35:59.576Z,20.60
2022-08-17T08:38:44.178Z,20.50
2022-08-17T08:41:46.455Z,20.60
2022-08-17T08:45:00.414Z,20.50
2022-08-17T08:48:22.724Z,20.50
2022-08-17T08:51:23.297Z,20.60
2022-08-17T08:54:26.455Z,20.70
2022-08-17T08:57:26.437Z,20.70
2022-08-17T09:00:15.712Z,20.70
2022-08-17T09:03:13.385Z,20.70
2022-08-17T09:06:28.753Z,20.80
2022-08-17T09:09:07.780Z,20.80
2022-08-17T09:12:02.624Z,20.90
2022-08-17T09:14:47.006Z,20.90
2022-08-17T09:17:19.477Z,21.00
2022-08-17T09:20:01.311Z,21.10
2022-08-17T09:22:42.747Z,21.10
2022-08-17T09:25:12.880Z,21.20
2022-08-17T09:28:19.270Z,21.20
2022-08-17T09:31:00.691Z,21.20
2022-08-17T09:33:40.006Z,21.30
2022-08-17T09:36:19.163Z,21.30
2022-08-17T09:39:29.198Z,21.30
2022-08-17T09:42:03.226Z,21.40
2022-08-17T09:44:36.312Z,21.50
2022-08-17T09:47:10.462Z,21.50
2022-08-17T09:50:03.158Z,21.50
2022-08-17T09:52:33.243Z,21.60
2022-08-17T09:55:02.854Z,21.70
2022-08-17T09:57:49.436Z,21.60
2022-08-17T10:00:40.406Z,21.60
2022-08-17T10:03:49.172Z,21.60
2022-08-17T10:06:38.478Z,21.70
2022-08-17T10:09:43.983Z,21.70
2022-08-17T10:12:33.155Z,21.70
2022-08-17T10:15:29.123Z,21.70
2022-08-17T10:18:25.557Z,21.70
2022-08-17T10:21:28.934Z,21.70
2022-08-17T10:24:23.505Z,21.80
2022-08-17T10:26:56.713Z,21.80
2022-08-17T10:29:48.519Z,21.80
2022-08-17T10:32:55.280Z,21.90
2022-08-17T10:36:01.561Z,21.90
2022-08-17T10:38:40.303Z,22.00
2022-08-17T10:41:31.535Z,22.00
2022-08-17T10:44:37.972Z,22.10
2022-08-17T10:47:14.561Z,22.10
2022-08-17T10:49:49.652Z,22.10
2022-08-17T10:52:24.933Z,22.20
2022-08-17T10:54:58.810Z,22.20
2022-08-17T10:57:47.127Z,22.30
2022-08-17T11:00:27.967Z,22.30
2022-08-17T11:03:00.205Z,22.30
2022-08-17T11:05:40.102Z,22.30
2022-08-17T11:08:44.235Z,22.20
2022-08-17T11:11:40.840Z,22.20
2022-08-17T11:14:26.042Z,22.20
2022-08-17T11:17:22.021Z,22.20
2022-08-17T11:20:07.684Z,22.20
2022-08-17T11:23:18.480Z,22.30
2022-08-17T11:25:50.732Z,22.30
2022-08-17T11:28:38.878Z,22.30
2022-08-17T11:31:38.940Z,22.30
2022-08-17T11:34:13.689Z,22.40
2022-08-17T11:37:14.839Z,22.40
2022-08-17T11:40:15.398Z,22.40
2022-08-17T11:43:10.479Z,22.50
2022-08-17T11:46:02.452Z,22.60
2022-08-17T11:49:27.548Z,22.70
2022-08-17T11:52:01.133Z,22.70
2022-08-17T11:54:46.588Z,22.80
2022-08-17T11:57:31.731Z,22.80
2022-08-17T12:00:11.728Z,22.80
2022-08-17T12:02:48.841Z,22.80
2022-08-17T12:05:26.318Z,22.80
2022-08-17T12:08:18.567Z,22.80
2022-08-17T12:10:58.232Z,22.80
2022-08-17T12:13:30.527Z,22.80
2022-08-17T12:16:07.341Z,22.70
2022-08-17T12:18:39.575Z,22.70
2022-08-17T12:21:23.206Z,22.70
2022-08-17T12:24:02.170Z,22.60
2022-08-17T12:26:32.845Z,22.60
2022-08-17T12:29:18.413Z,22.60
2022-08-17T12:32:06.916Z,22.50
2022-08-17T12:34:40.763Z,22.60
2022-08-17T12:37:32.360Z,22.60
2022-08-17T12:40:02.938Z,22.60
2022-08-17T12:42:39.349Z,22.50
2022-08-17T12:45:20.679Z,22.50
2022-08-17T12:47:47.703Z,22.50
2022-08-17T12:50:29.557Z,22.50
2022-08-17T12:53:02.071Z,22.50
2022-08-17T12:55:35.132Z,22.40
2022-08-17T12:58:02.491Z,22.30
2022-08-17T13:00:33.041Z,22.20
2022-08-17T13:03:16.614Z,22.20
2022-08-17T13:05:57.505Z,22.10
2022-08-17T13:08:31.736Z,22.10
2022-08-17T13:11:10.541Z,22.10
2022-08-17T13:13:41.542Z,22.10
2022-08-17T13:16:20.420Z,22.00
2022-08-17T13:18:53.135Z,22.00
2022-08-17T13:21:20.141Z,22.00
2022-08-17T13:24:17.439Z,22.00
2022-08-17T13:26:45.940Z,21.90
2022-08-17T13:29:36.080Z,21.90
2022-08-17T13:32:13.167Z,21.80
2022-08-17T13:35:12.390Z,21.80
2022-08-17T13:37:40.588Z,21.70
2022-08-17T13:40:10.640Z,21.70
2022-08-17T13:42:50.411Z,21.60
2022-08-17T13:45:35.094Z,21.60
2022-08-17T13:48:34.111Z,21.60
2022-08-17T13:51:01.001Z,21.60
2022-08-17T13:53:52.490Z,21.60
2022-08-17T13:56:33.539Z,21.60
2022-08-17T13:59:12.802Z,21.70
2022-08-17T14:01:52.558Z,21.60
2022-08-17T14:04:23.945Z,21.60
2022-08-17T14:07:04.456Z,21.60
2022-08-17T14:09:43.512Z,21.50
2022-08-17T14:12:13.379Z,21.60
2022-08-17T14:14:42.683Z,21.50
2022-08-17T14:17:10.907Z,21.50
2022-08-17T14:19:38.696Z,21.60
2022-08-17T14:22:09.156Z,21.60
2022-08-17T14:24:44.598Z,21.60
2022-08-17T14:27:12.154Z,21.70
2022-08-17T14:29:41.254Z,21.70
2022-08-17T14:32:20.366Z,21.70
2022-08-17T14:34:49.678Z,21.70
2022-08-17T14:37:17.833Z,21.70
2022-08-17T14:39:45.091Z,21.80
2022-08-17T14:42:12.395Z,21.80
2022-08-17T14:44:39.993Z,21.90
2022-08-17T14:47:12.101Z,22.00
2022-08-17T14:49:39.026Z,22.10
2022-08-17T14:52:06.082Z,22.10
2022-08-17T14:54:34.612Z,22.20
2022-08-17T14:57:24.562Z,22.20
2022-08-17T14:59:51.737Z,22.30
2022-08-17T15:02:31.048Z,22.30
2022-08-17T15:05:04.094Z,22.30
2022-08-17T15:07:31.755Z,22.40
2022-08-17T15:10:02.695Z,22.40
2022-08-17T15:12:34.077Z,22.60
2022-08-17T15:15:05.593Z,22.70
2022-08-17T15:17:44.412Z,22.80
2022-08-17T15:20:19.484Z,23.00
2022-08-17T15:22:50.031Z,23.20
2022-08-17T15:25:19.020Z,23.40
2022-08-17T15:27:46.259Z,23.60
2022-08-17T15:30:13.903Z,23.80
2022-08-17T15:32:48.203Z,24.00
2022-08-17T15:35:27.220Z,24.30
2022-08-17T15:37:54.564Z,24.50
2022-08-17T15:40:21.537Z,24.70
2022-08-17T15:42:48.706Z,24.80
2022-08-17T15:45:16.983Z,25.10
2022-08-17T15:47:44.022Z,25.30
2022-08-17T15:50:11.309Z,25.40
2022-08-17T15:52:40.611Z,25.60
2022-08-17T15:55:12.088Z,25.60
2022-08-17T15:57:39.527Z,25.50
2022-08-17T16:00:08.718Z,25.40
2022-08-17T16:03:14.615Z,25.40
2022-08-17T16:05:25.272Z,25.40
2022-08-17T16:07:53.473Z,25.40
2022-08-17T16:10:21.466Z,25.40
2022-08-17T16:13:01.562Z,25.40
2022-08-17T16:15:31.256Z,25.40
2022-08-17T16:17:58.238Z,25.30
2022-08-17T16:20:25.237Z,25.20
2022-08-17T16:22:52.287Z,25.10
2022-08-17T16:25:49.037Z,25.00
2022-08-17T16:28:18.355Z,25.00
2022-08-17T16:30:45.541Z,24.90
2022-08-17T16:33:16.801Z,24.80
2022-08-17T16:35:44.018Z,24.80
2022-08-17T16:38:12.552Z,24.60
2022-08-17T16:40:40.513Z,24.50
2022-08-17T16:43:12.227Z,24.40
2022-08-17T16:45:40.878Z,24.40
2022-08-17T16:48:09.443Z,24.30
2022-08-17T16:50:37.312Z,24.20
2022-08-17T16:53:11.551Z,24.10
2022-08-17T16:55:38.757Z,24.00
2022-08-17T16:58:08.858Z,24.00
2022-08-17T17:00:38.030Z,23.90
2022-08-17T17:03:19.128Z,23.80
2022-08-17T17:06:08.699Z,23.60
2022-08-17T17:08:46.718Z,23.40
2022-08-17T17:11:44.917Z,23.20
2022-08-17T17:14:20.305Z,23.10
2022-08-17T17:16:58.376Z,23.10
2022-08-17T17:19:41.373Z,23.00
2022-08-17T17:22:25.261Z,22.90
2022-08-17T17:25:19.750Z,22.90
2022-08-17T17:27:58.985Z,22.80
2022-08-17T17:30:53.063Z,22.80
2022-08-17T17:33:31.159Z,22.80
2022-08-17T17:36:13.839Z,22.90
2022-08-17T17:38:49.064Z,22.90
2022-08-17T17:41:26.269Z,22.90
2022-08-17T17:44:01.710Z,22.90
2022-08-17T17:46:38.039Z,22.90
2022-08-17T17:49:10.743Z,22.90
2022-08-17T17:52:10.102Z,22.90
2022-08-17T17:55:01.911Z,22.80
2022-08-17T17:57:56.973Z,22.70
2022-08-17T18:00:51.845Z,22.60
2022-08-17T18:03:45.664Z,22.60
2022-08-17T18:06:34.208Z,22.50
2022-08-17T18:09:35.910Z,22.50
2022-08-17T18:12:21.176Z,22.40
2022-08-17T18:15:21.538Z,22.40
2022-08-17T18:18:17.459Z,22.40
2022-08-17T18:20:56.008Z,22.30
2022-08-17T18:23:28.439Z,22.30
2022-08-17T18:25:57.111Z,22.30
2022-08-17T18:28:35.828Z,22.20
2022-08-17T18:31:15.022Z,22.20
2022-08-17T18:33:51.620Z,22.20
2022-08-17T18:36:34.397Z,22.20
2022-08-17T18:39:25.985Z,22.20
2022-08-17T18:41:56.149Z,22.20
2022-08-17T18:44:43.976Z,22.20
2022-08-17T18:47:24.478Z,22.10
2022-08-17T18:50:19.636Z,22.10
2022-08-17T18:52:50.749Z,22.10
2022-08-17T18:55:29.043Z,22.10
2022-08-17T18:58:15.516Z,22.10
2022-08-17T19:00:45.760Z,22.10
2022-08-17T19:03:15.938Z,22.10
2022-08-17T19:05:46.582Z,22.10
2022-08-17T19:08:28.686Z,22.10
2022-08-17T19:10:57.993Z,22.00
2022-08-17T19:13:47.626Z,22.00
2022-08-17T19:16:40.483Z,22.00
2022-08-17T19:19:17.606Z,21.90
2022-08-17T19:22:06.082Z,21.90
2022-08-17T19:24:36.439Z,21.80
2022-08-17T19:27:57.233Z,21.80
2022-08-17T19:30:25.972Z,21.70
2022-08-17T19:33:02.276Z,21.70
2022-08-17T19:36:06.555Z,21.70
2022-08-17T19:39:38.377Z,21.60
2022-08-17T19:42:33.421Z,21.60
2022-08-17T19:45:23.268Z,21.60
2022-08-17T19:48:02.619Z,21.60
2022-08-17T19:51:08.072Z,21.60
2022-08-17T19:54:04.426Z,21.50
2022-08-17T19:57:04.799Z,21.50
2022-08-17T19:59:50.320Z,21.50
2022-08-17T20:02:35.775Z,21.50
2022-08-17T20:05:10.381Z,21.50
2022-08-17T20:07:57.441Z,21.40
2022-08-17T20:10:47.366Z,21.40
2022-08-17T20:13:33.621Z,21.30
2022-08-17T20:16:02.551Z,21.30
2022-08-17T20:18:57.999Z,21.30
2022-08-17T20:21:39.893Z,21.20
2022-08-17T20:24:21.981Z,21.20
2022-08-17T20:27:11.836Z,21.20
2022-08-17T20:30:06.979Z,21.20
2022-08-17T20:32:52.673Z,21.20
2022-08-17T20:35:32.998Z,21.20
2022-08-17T20:38:07.868Z,21.10
2022-08-17T20:40:54.385Z,21.10
2022-08-17T20:43:33.693Z,21.20
2022-08-17T20:46:03.754Z,21.20
2022-08-17T20:48:45.248Z,21.20
2022-08-17T20:51:34.928Z,21.20
2022-08-17T20:54:17.198Z,21.20
2022-08-17T20:56:48.695Z,21.20
2022-08-17T20:59:28.640Z,21.10
2022-08-17T21:02:21.751Z,21.10
2022-08-17T21:04:54.784Z,21.10
2022-08-17T21:07:43.000Z,21.10
2022-08-17T21:10:30.227Z,21.10
2022-08-17T21:13:15.605Z,21.10
2022-08-17T21:16:07.798Z,21.10
2022-08-17T21:18:56.576Z,21.10
2022-08-17T21:21:29.514Z,21.10
2022-08-17T21:24:16.757Z,21.10
2022-08-17T21:27:01.924Z,21.10
2022-08-17T21:29:34.204Z,21.10
2022-08-17T21:32:41.941Z,21.00
2022-08-17T21:35:28.774Z,21.10
2022-08-17T21:38:14.088Z,21.10
2022-08-17T21:40:45.646Z,21.00
2022-08-17T21:43:29.381Z,21.00
2022-08-17T21:46:00.799Z,21.00
2022-08-17T21:48:41.390Z,21.00
2022-08-17T21:51:22.044Z,21.00
2022-08-17T21:53:54.341Z,21.00
2022-08-17T21:56:33.103Z,21.00
2022-08-17T21:59:04.473Z,21.00
2022-08-17T22:01:41.001Z,20.90
2022-08-17T22:04:11.609Z,20.90
2022-08-17T22:06:54.262Z,20.90
2022-08-17T22:09:33.456Z,20.90
2022-08-17T22:12:10.980Z,20.80
2022-08-17T22:15:07.467Z,20.80
2022-08-17T22:17:40.344Z,20.80
2022-08-17T22:20:19.498Z,20.80
2022-08-17T22:23:08.273Z,20.80
2022-08-17T22:25:57.085Z,20.80
2022-08-17T22:28:58.528Z,20.80
2022-08-17T22:31:43.663Z,20.80
2022-08-17T22:34:15.494Z,20.80
2022-08-17T22:36:42.866Z,20.80
2022-08-17T22:39:15.741Z,20.80
2022-08-17T22:42:02.513Z,20.80
2022-08-17T22:44:37.578Z,20.80
2022-08-17T22:47:29.441Z,20.80
2022-08-17T22:50:00.947Z,20.80
2022-08-17T22:52:59.039Z,20.80
2022-08-17T22:55:51.852Z,20.90
2022-08-17T22:58:43.499Z,20.80
2022-08-17T23:01:33.444Z,20.80
2022-08-17T23:04:10.420Z,20.80
2022-08-17T23:06:44.172Z,20.80
2022-08-17T23:09:14.207Z,20.80
2022-08-17T23:11:57.355Z,20.90
2022-08-17T23:14:32.158Z,20.80
2022-08-17T23:20:45.613Z,20.90
2022-08-17T23:23:15.640Z,20.90
2022-08-17T23:25:46.267Z,20.90
2022-08-17T23:28:17.094Z,20.90
2022-08-17T23:30:50.506Z,21.00
2022-08-17T23:33:35.308Z,20.90
2022-08-17T23:36:03.256Z,20.90
2022-08-17T23:38:32.094Z,20.90
2022-08-17T23:41:02.206Z,20.90
2022-08-17T23:43:48.925Z,20.80
2022-08-17T23:46:22.641Z,20.80
2022-08-17T23:48:53.552Z,20.80
2022-08-17T23:51:31.792Z,20.80
2022-08-17T23:54:08.001Z,20.80
2022-08-17T23:56:45.799Z,20.70
2022-08-17T23:59:17.218Z,20.70
